createdAt,value
2022-12-08T00:01:01.636Z,55.53
2022-12-08T00:03:28.029Z,55.46
2022-12-08T00:05:54.456Z,55.44
2022-12-08T00:08:20.885Z,55.32
2022-12-08T00:10:49.392Z,54.58
2022-12-08T00:13:16.114Z,54.54
2022-12-08T00:15:42.440Z,56.11
2022-12-08T00:18:08.713Z,57.63
2022-12-08T00:20:34.992Z,55.99
2022-12-08T00:23:01.398Z,58.15
2022-12-08T00:25:27.702Z,57.66
2022-12-08T00:27:54.060Z,56.78
2022-12-08T00:30:20.318Z,55.73
2022-12-08T00:32:46.623Z,55.37
2022-12-08T00:35:12.891Z,54.66
2022-12-08T00:37:39.140Z,54.44
2022-12-08T00:40:05.796Z,54.75
2022-12-08T00:42:32.236Z,55.25
2022-12-08T00:44:58.504Z,54.86
2022-12-08T00:47:25.198Z,52.25
2022-12-08T00:49:51.556Z,53.08
2022-12-08T00:52:17.880Z,54.84
2022-12-08T00:54:44.235Z,54.52
2022-12-08T00:57:10.512Z,54.55
2022-12-08T00:59:36.750Z,54.14
2022-12-08T01:02:03.080Z,54.23
2022-12-08T01:04:29.348Z,55.10
2022-12-08T01:06:55.601Z,55.59
2022-12-08T01:09:21.929Z,53.02
2022-12-08T01:11:48.267Z,52.29
2022-12-08T01:14:14.535Z,53.53
2022-12-08T01:16:40.913Z,52.80
2022-12-08T01:19:07.213Z,52.18
2022-12-08T01:21:34.306Z,51.76
2022-12-08T01:24:00.587Z,51.54
2022-12-08T01:26:26.863Z,51.30
2022-12-08T01:28:53.129Z,50.66
2022-12-08T01:31:19.474Z,51.19
2022-12-08T01:33:45.820Z,51.05
2022-12-08T01:36:12.132Z,52.40
2022-12-08T01:38:38.394Z,52.94
2022-12-08T01:41:04.804Z,52.49
2022-12-08T01:43:31.125Z,52.47
2022-12-08T01:45:57.421Z,53.17
2022-12-08T01:48:23.824Z,53.06
2022-12-08T01:50:50.277Z,53.11
2022-12-08T01:53:16.561Z,53.48
2022-12-08T01:55:42.836Z,53.71
2022-12-08T01:58:09.134Z,54.45
2022-12-08T02:00:35.402Z,53.89
2022-12-08T02:03:01.826Z,53.20
2022-12-08T02:05:28.236Z,53.40
2022-12-08T02:07:54.558Z,53.74
2022-12-08T02:10:20.929Z,53.19
2022-12-08T02:12:47.217Z,52.20
2022-12-08T02:15:13.456Z,51.85
2022-12-08T02:17:39.720Z,51.77
2022-12-08T02:20:06.250Z,52.56
2022-12-08T02:22:32.807Z,51.49
2022-12-08T02:24:59.055Z,52.08
2022-12-08T02:27:25.318Z,52.70
2022-12-08T02:29:51.624Z,52.32
2022-12-08T02:32:17.937Z,51.84
2022-12-08T02:34:44.196Z,52.27
2022-12-08T02:37:10.452Z,51.21
2022-12-08T02:39:36.795Z,52.22
2022-12-08T02:42:03.052Z,51.96
2022-12-08T02:44:29.383Z,52.18
2022-12-08T02:46:55.716Z,52.52
2022-12-08T02:49:22.055Z,51.02
2022-12-08T02:51:48.363Z,51.23
2022-12-08T02:54:14.633Z,50.97
2022-12-08T02:56:40.895Z,50.14
2022-12-08T02:59:07.167Z,50.64
2022-12-08T03:01:33.508Z,50.66
2022-12-08T03:03:59.876Z,52.24
2022-12-08T03:06:26.142Z,52.03
2022-12-08T03:08:52.460Z,51.54
2022-12-08T03:11:20.488Z,51.57
2022-12-08T03:13:46.840Z,50.34
2022-12-08T03:16:13.241Z,52.23
2022-12-08T03:18:39.613Z,52.26
2022-12-08T03:21:05.918Z,51.37
2022-12-08T03:23:32.172Z,51.67
2022-12-08T03:25:58.499Z,51.30
2022-12-08T03:28:24.766Z,50.53
2022-12-08T03:30:51.081Z,49.71
2022-12-08T03:33:17.432Z,50.03
2022-12-08T03:35:43.705Z,50.40
2022-12-08T03:38:09.956Z,50.82
2022-12-08T03:40:36.226Z,50.23
2022-12-08T03:43:02.492Z,50.54
2022-12-08T03:45:28.746Z,49.57
2022-12-08T03:47:55.032Z,50.54
2022-12-08T03:50:21.317Z,51.12
2022-12-08T03:52:47.560Z,51.06
2022-12-08T03:55:13.869Z,50.45
2022-12-08T03:57:40.133Z,50.55
2022-12-08T04:00:06.806Z,51.02
2022-12-08T04:02:33.358Z,50.02
2022-12-08T04:04:59.651Z,52.15
2022-12-08T04:07:25.896Z,51.65
2022-12-08T04:09:52.163Z,50.07
2022-12-08T04:12:21.144Z,50.03
2022-12-08T04:15:07.374Z,49.77
2022-12-08T04:17:53.627Z,49.38
2022-12-08T04:20:19.883Z,50.20
2022-12-08T04:22:46.211Z,50.87
2022-12-08T04:25:12.756Z,49.99
2022-12-08T04:27:39.066Z,49.96
2022-12-08T04:30:05.656Z,48.79
2022-12-08T04:32:32.174Z,49.97
2022-12-08T04:34:58.446Z,50.70
2022-12-08T04:37:24.761Z,50.50
2022-12-08T04:39:51.040Z,49.82
2022-12-08T04:42:17.356Z,51.09
2022-12-08T04:44:43.626Z,49.99
2022-12-08T04:47:09.932Z,49.83
2022-12-08T04:49:36.273Z,49.04
2022-12-08T04:52:02.608Z,50.04
2022-12-08T04:54:29.005Z,50.07
2022-12-08T04:56:55.323Z,50.35
2022-12-08T04:59:21.587Z,50.28
2022-12-08T05:01:47.934Z,50.41
2022-12-08T05:04:14.308Z,50.82
2022-12-08T05:06:40.632Z,49.21
2022-12-08T05:09:06.971Z,48.98
2022-12-08T05:11:33.325Z,47.89
2022-12-08T05:13:59.596Z,47.61
2022-12-08T05:16:25.973Z,46.89
2022-12-08T05:18:52.289Z,47.11
2022-12-08T05:21:18.609Z,47.49
2022-12-08T05:23:44.866Z,47.64
2022-12-08T05:26:11.151Z,47.57
2022-12-08T05:28:42.274Z,47.42
2022-12-08T05:31:09.230Z,47.38
2022-12-08T05:33:35.558Z,47.04
2022-12-08T05:36:01.832Z,47.53
2022-12-08T05:38:28.160Z,48.19
2022-12-08T05:40:54.435Z,47.79
2022-12-08T05:43:20.695Z,46.57
2022-12-08T05:45:47.067Z,47.29
2022-12-08T05:48:13.490Z,46.44
2022-12-08T05:50:39.836Z,45.92
2022-12-08T05:53:06.172Z,47.02
2022-12-08T05:55:32.472Z,48.10
2022-12-08T05:58:03.073Z,48.23
2022-12-08T06:00:32.512Z,48.36
2022-12-08T06:02:58.911Z,48.45
2022-12-08T06:05:25.314Z,49.08
2022-12-08T06:07:51.604Z,48.50
2022-12-08T06:10:17.912Z,46.48
2022-12-08T06:12:44.251Z,46.71
2022-12-08T06:15:10.524Z,46.79
2022-12-08T06:17:36.788Z,46.61
2022-12-08T06:20:03.351Z,46.58
2022-12-08T06:22:29.990Z,47.30
2022-12-08T06:24:56.319Z,46.48
2022-12-08T06:27:22.595Z,47.58
2022-12-08T06:29:48.920Z,46.91
2022-12-08T06:32:15.247Z,47.12
2022-12-08T06:34:41.609Z,48.28
2022-12-08T06:37:07.932Z,47.36
2022-12-08T06:39:34.258Z,48.52
2022-12-08T06:42:00.582Z,48.52
2022-12-08T06:44:26.847Z,48.09
2022-12-08T06:46:53.111Z,47.47
2022-12-08T06:49:19.364Z,48.14
2022-12-08T06:51:45.617Z,49.03
2022-12-08T06:54:11.945Z,50.38
2022-12-08T06:56:38.252Z,49.92
2022-12-08T06:59:04.504Z,49.37
2022-12-08T07:01:30.971Z,48.61
2022-12-08T07:03:57.269Z,47.78
2022-12-08T07:06:23.532Z,47.62
2022-12-08T07:08:49.799Z,48.61
2022-12-08T07:11:21.215Z,49.03
2022-12-08T07:13:48.475Z,49.03
2022-12-08T07:16:14.922Z,48.90
2022-12-08T07:18:41.318Z,48.03
2022-12-08T07:21:07.580Z,48.05
2022-12-08T07:23:33.931Z,47.79
2022-12-08T07:26:00.190Z,47.94
2022-12-08T07:28:26.440Z,46.76
2022-12-08T07:30:52.847Z,47.11
2022-12-08T07:33:19.141Z,46.93
2022-12-08T07:35:49.267Z,44.92
2022-12-08T07:38:15.903Z,46.20
2022-12-08T07:40:42.156Z,46.16
2022-12-08T07:43:08.464Z,46.64
2022-12-08T07:45:34.814Z,46.54
2022-12-08T07:48:01.067Z,46.68
2022-12-08T07:50:27.381Z,45.78
2022-12-08T07:52:53.727Z,46.61
2022-12-08T07:55:20.103Z,45.47
2022-12-08T07:57:46.371Z,45.46
2022-12-08T08:00:12.706Z,47.34
2022-12-08T08:02:39.161Z,46.85
2022-12-08T08:05:05.609Z,44.74
2022-12-08T08:07:32.006Z,44.00
2022-12-08T08:09:58.267Z,45.56
2022-12-08T08:12:32.508Z,45.05
2022-12-08T08:14:59.374Z,45.68
2022-12-08T08:17:25.840Z,45.44
2022-12-08T08:19:52.178Z,45.52
2022-12-08T08:22:18.517Z,44.70
2022-12-08T08:24:45.332Z,46.42
2022-12-08T08:27:11.741Z,47.61
2022-12-08T08:29:38.042Z,45.90
2022-12-08T08:32:04.309Z,42.23
2022-12-08T08:34:30.634Z,41.75
2022-12-08T08:36:56.926Z,42.89
2022-12-08T08:39:23.298Z,43.76
2022-12-08T08:41:49.537Z,44.47
2022-12-08T08:44:15.812Z,45.96
2022-12-08T08:46:42.139Z,44.40
2022-12-08T08:49:08.424Z,45.04
2022-12-08T08:51:34.866Z,44.23
2022-12-08T08:54:01.129Z,43.97
2022-12-08T08:56:27.366Z,44.72
2022-12-08T08:58:53.705Z,44.67
2022-12-08T09:01:20.023Z,45.24
2022-12-08T09:03:46.328Z,45.85
2022-12-08T09:06:12.803Z,46.20
2022-12-08T09:08:39.208Z,45.38
2022-12-08T09:11:05.456Z,44.32
2022-12-08T09:13:31.794Z,45.19
2022-12-08T09:15:58.163Z,44.59
2022-12-08T09:18:24.471Z,43.92
2022-12-08T09:20:50.842Z,43.77
2022-12-08T09:23:17.162Z,43.09
2022-12-08T09:25:43.397Z,42.61
2022-12-08T09:28:09.691Z,42.37
2022-12-08T09:30:36.012Z,41.92
2022-12-08T09:33:02.325Z,41.60
2022-12-08T09:35:28.673Z,41.41
2022-12-08T09:37:55.000Z,41.74
2022-12-08T09:40:21.255Z,42.80
2022-12-08T09:42:47.683Z,43.97
2022-12-08T09:45:13.972Z,44.05
2022-12-08T09:47:40.220Z,44.26
2022-12-08T09:50:06.982Z,44.36
2022-12-08T09:52:33.740Z,43.01
2022-12-08T09:55:00.018Z,42.07
2022-12-08T09:57:26.344Z,40.86
2022-12-08T09:59:52.702Z,41.86
2022-12-08T10:02:19.105Z,42.20
2022-12-08T10:04:45.485Z,40.68
2022-12-08T10:07:11.797Z,40.92
2022-12-08T10:09:38.116Z,42.23
2022-12-08T10:12:04.396Z,42.67
2022-12-08T10:14:30.658Z,42.13
2022-12-08T10:16:56.994Z,41.56
2022-12-08T10:19:23.329Z,40.10
2022-12-08T10:21:49.588Z,40.25
2022-12-08T10:24:15.872Z,39.78
2022-12-08T10:26:42.154Z,40.14
2022-12-08T10:29:08.411Z,40.48
2022-12-08T10:31:34.817Z,41.68
2022-12-08T10:34:01.159Z,41.67
2022-12-08T10:36:27.472Z,41.30
2022-12-08T10:38:53.800Z,40.78
2022-12-08T10:41:20.079Z,39.59
2022-12-08T10:43:46.465Z,40.43
2022-12-08T10:46:12.829Z,39.53
2022-12-08T10:48:39.183Z,39.39
2022-12-08T10:51:06.255Z,39.70
2022-12-08T10:53:32.649Z,40.58
2022-12-08T10:55:58.952Z,40.18
2022-12-08T10:58:25.388Z,40.81
2022-12-08T11:00:51.784Z,41.31
2022-12-08T11:03:18.195Z,40.67
2022-12-08T11:05:44.464Z,40.91
2022-12-08T11:08:10.864Z,38.80
2022-12-08T11:10:37.212Z,39.54
2022-12-08T11:13:03.448Z,41.59
2022-12-08T11:15:29.833Z,41.28
2022-12-08T11:17:57.729Z,41.83
2022-12-08T11:20:24.126Z,40.90
2022-12-08T11:22:50.446Z,39.29
2022-12-08T11:25:16.783Z,38.11
2022-12-08T11:27:43.044Z,40.90
2022-12-08T11:30:14.054Z,42.26
2022-12-08T11:32:40.855Z,39.90
2022-12-08T11:35:07.109Z,38.60
2022-12-08T11:37:35.122Z,39.87
2022-12-08T11:40:01.771Z,40.63
2022-12-08T11:42:28.280Z,39.71
2022-12-08T11:44:54.612Z,36.30
2022-12-08T11:47:20.904Z,40.63
2022-12-08T11:52:18.329Z,40.00
2022-12-08T11:54:44.641Z,40.33
2022-12-08T11:57:10.992Z,41.21
2022-12-08T11:59:37.258Z,40.71
2022-12-08T12:02:03.672Z,38.91
2022-12-08T12:04:30.071Z,40.35
2022-12-08T12:06:56.341Z,40.28
2022-12-08T12:09:22.857Z,39.33
2022-12-08T12:11:49.159Z,38.83
2022-12-08T12:14:15.412Z,38.96
2022-12-08T12:16:41.803Z,39.53
2022-12-08T12:19:08.221Z,40.53
2022-12-08T12:21:34.477Z,40.46
2022-12-08T12:24:00.812Z,38.94
2022-12-08T12:26:27.132Z,38.20
2022-12-08T12:28:53.442Z,38.72
2022-12-08T12:31:19.856Z,38.13
2022-12-08T12:33:46.291Z,36.25
2022-12-08T12:36:12.952Z,37.73
2022-12-08T12:38:39.206Z,37.72
2022-12-08T12:41:05.471Z,36.07
2022-12-08T12:43:31.730Z,35.90
2022-12-08T12:45:58.108Z,36.54
2022-12-08T12:48:24.534Z,38.45
2022-12-08T12:50:50.792Z,38.94
2022-12-08T12:53:17.126Z,38.43
2022-12-08T12:55:43.420Z,35.80
2022-12-08T12:58:09.654Z,40.22
2022-12-08T13:00:35.906Z,40.30
2022-12-08T13:03:02.217Z,39.80
2022-12-08T13:05:28.583Z,41.06
2022-12-08T13:07:55.094Z,39.76
2022-12-08T13:10:21.515Z,39.44
2022-12-08T13:12:47.773Z,39.48
2022-12-08T13:15:14.098Z,39.13
2022-12-08T13:17:40.412Z,38.49
2022-12-08T13:20:06.927Z,38.57
2022-12-08T13:22:33.490Z,38.93
2022-12-08T13:24:59.759Z,40.61
2022-12-08T13:27:26.004Z,38.94
2022-12-08T13:29:52.273Z,38.52
2022-12-08T13:32:18.767Z,37.89
2022-12-08T13:34:45.107Z,39.04
2022-12-08T13:37:11.413Z,39.32
2022-12-08T13:39:37.694Z,38.84
2022-12-08T13:42:03.961Z,39.02
2022-12-08T13:47:33.408Z,38.66
2022-12-08T13:56:51.400Z,38.01
2022-12-08T13:58:19.570Z,37.99
2022-12-08T14:00:45.842Z,39.28
2022-12-08T14:03:12.221Z,39.45
2022-12-08T14:06:10.477Z,40.22
2022-12-08T14:08:57.091Z,38.84
2022-12-08T14:11:11.089Z,37.81
2022-12-08T14:13:37.402Z,37.46
2022-12-08T14:16:03.676Z,37.33
2022-12-08T14:18:29.975Z,37.02
2022-12-08T14:21:19.805Z,39.52
2022-12-08T14:23:42.596Z,39.84
2022-12-08T14:26:09.054Z,38.68
2022-12-08T14:28:37.806Z,38.67
2022-12-08T14:31:07.831Z,40.77
2022-12-08T14:33:34.193Z,40.86
2022-12-08T14:36:00.485Z,42.14
2022-12-08T14:38:26.800Z,42.36
2022-12-08T14:40:53.196Z,41.03
2022-12-08T14:43:19.508Z,39.92
2022-12-08T14:45:45.761Z,39.26
2022-12-08T14:48:12.084Z,39.96
2022-12-08T14:50:38.420Z,41.14
2022-12-08T14:53:04.693Z,40.70
2022-12-08T14:55:30.963Z,40.24
2022-12-08T14:57:57.325Z,40.45
2022-12-08T15:00:23.611Z,40.62
2022-12-08T15:02:49.863Z,39.98
2022-12-08T15:05:16.226Z,39.69
2022-12-08T15:07:42.575Z,40.03
2022-12-08T15:10:09.053Z,37.84
2022-12-08T15:12:35.441Z,37.88
2022-12-08T15:15:01.921Z,39.87
2022-12-08T15:17:28.274Z,40.98
2022-12-08T15:19:54.604Z,41.13
2022-12-08T15:22:20.892Z,41.46
2022-12-08T15:24:47.154Z,42.21
2022-12-08T15:27:13.488Z,42.75
2022-12-08T15:29:39.791Z,44.07
2022-12-08T15:32:06.112Z,44.13
2022-12-08T15:34:32.379Z,42.96
2022-12-08T15:36:58.705Z,43.21
2022-12-08T15:39:25.014Z,44.20
2022-12-08T15:41:51.267Z,43.94
2022-12-08T15:44:17.580Z,42.31
2022-12-08T15:46:43.864Z,43.04
2022-12-08T15:49:10.205Z,42.80
2022-12-08T15:51:36.591Z,42.74
2022-12-08T15:54:02.888Z,40.88
2022-12-08T15:56:29.189Z,42.14
2022-12-08T15:58:56.860Z,43.19
2022-12-08T16:01:23.625Z,42.53
2022-12-08T16:09:22.729Z,44.84
2022-12-08T16:12:06.009Z,44.39
2022-12-08T16:17:20.104Z,43.09
2022-12-08T16:19:46.506Z,45.12
2022-12-08T16:25:14.654Z,47.07
2022-12-08T16:28:01.386Z,45.97
2022-12-08T16:30:30.731Z,44.72
2022-12-08T16:32:56.981Z,44.80
2022-12-08T16:35:23.236Z,45.77
2022-12-08T16:37:49.590Z,46.22
2022-12-08T16:40:15.859Z,44.80
2022-12-08T16:42:42.115Z,44.73
2022-12-08T16:45:08.524Z,45.31
2022-12-08T16:47:34.974Z,45.80
2022-12-08T16:50:01.223Z,43.99
2022-12-08T16:52:27.501Z,43.46
2022-12-08T16:54:53.770Z,44.64
2022-12-08T16:57:20.031Z,45.53
2022-12-08T16:59:46.343Z,44.87
2022-12-08T17:02:16.395Z,45.09
2022-12-08T17:04:42.988Z,43.30
2022-12-08T17:07:09.280Z,43.04
2022-12-08T17:09:35.568Z,43.23
2022-12-08T17:12:04.027Z,43.79
2022-12-08T17:14:30.732Z,43.10
2022-12-08T17:16:57.090Z,43.18
2022-12-08T17:19:23.392Z,43.66
2022-12-08T17:21:49.696Z,43.39
2022-12-08T17:24:20.318Z,42.00
2022-12-08T17:26:48.356Z,42.19
2022-12-08T17:29:14.618Z,43.18
2022-12-08T17:31:40.999Z,41.71
2022-12-08T17:34:07.287Z,41.20
2022-12-08T17:36:33.554Z,42.24
2022-12-08T17:38:59.825Z,43.04
2022-12-08T17:41:26.115Z,43.46
2022-12-08T17:43:52.552Z,43.63
2022-12-08T17:46:18.873Z,44.12
2022-12-08T17:48:45.181Z,42.72
2022-12-08T17:51:11.440Z,43.12
2022-12-08T17:53:37.795Z,44.71
2022-12-08T17:56:04.112Z,44.67
2022-12-08T17:58:30.447Z,43.99
2022-12-08T18:00:56.803Z,43.97
2022-12-08T18:03:23.097Z,43.19
2022-12-08T18:05:49.364Z,43.10
2022-12-08T18:08:15.712Z,42.00
2022-12-08T18:10:41.963Z,43.07
2022-12-08T18:13:08.273Z,43.85
2022-12-08T18:15:39.015Z,43.51
2022-12-08T18:18:05.655Z,43.04
2022-12-08T18:20:31.969Z,42.97
2022-12-08T18:22:58.280Z,44.30
2022-12-08T18:25:24.595Z,44.70
2022-12-08T18:27:50.872Z,43.79
2022-12-08T18:30:17.185Z,44.28
2022-12-08T18:32:43.463Z,44.97
2022-12-08T18:35:09.716Z,45.96
2022-12-08T18:37:37.110Z,45.28
2022-12-08T18:40:03.716Z,45.30
2022-12-08T18:42:30.251Z,45.12
2022-12-08T18:44:56.592Z,44.68
2022-12-08T18:47:22.851Z,45.70
2022-12-08T18:49:49.092Z,46.38
2022-12-08T18:52:18.973Z,45.74
2022-12-08T18:55:05.795Z,45.79
2022-12-08T18:57:33.253Z,44.43
2022-12-08T18:59:59.587Z,43.40
2022-12-08T19:02:25.960Z,43.46
2022-12-08T19:04:52.266Z,44.28
2022-12-08T19:07:18.619Z,44.10
2022-12-08T19:09:44.872Z,44.24
2022-12-08T19:12:11.128Z,44.41
2022-12-08T19:14:37.376Z,44.24
2022-12-08T19:17:03.648Z,43.63
2022-12-08T19:19:29.923Z,44.06
2022-12-08T19:21:56.227Z,45.54
2022-12-08T19:24:22.489Z,45.50
2022-12-08T19:26:48.799Z,44.45
2022-12-08T19:29:15.080Z,45.30
2022-12-08T19:31:41.431Z,45.53
2022-12-08T19:34:07.792Z,44.66
2022-12-08T19:36:34.120Z,44.29
2022-12-08T19:39:00.437Z,44.44
2022-12-08T19:41:26.772Z,45.14
2022-12-08T19:43:53.116Z,44.93
2022-12-08T19:46:19.521Z,44.01
2022-12-08T19:48:45.866Z,44.58
2022-12-08T19:51:12.143Z,43.42
2022-12-08T19:53:40.782Z,43.52
2022-12-08T19:56:10.751Z,43.64
2022-12-08T19:58:37.029Z,43.84
2022-12-08T20:01:03.291Z,43.75
2022-12-08T20:03:29.779Z,43.65
2022-12-08T20:05:56.179Z,43.36
2022-12-08T20:08:22.536Z,43.54
2022-12-08T20:10:48.940Z,43.27
2022-12-08T20:13:15.273Z,42.97
2022-12-08T20:15:41.622Z,43.42
2022-12-08T20:18:08.039Z,43.66
2022-12-08T20:20:34.316Z,44.67
2022-12-08T20:23:00.603Z,43.73
2022-12-08T20:25:26.848Z,43.64
2022-12-08T20:27:53.207Z,44.01
2022-12-08T20:30:19.492Z,43.26
2022-12-08T20:32:45.786Z,42.98
2022-12-08T20:35:12.117Z,42.40
2022-12-08T20:37:38.392Z,42.18
2022-12-08T20:40:04.812Z,42.06
2022-12-08T20:42:31.145Z,42.63
2022-12-08T20:44:57.428Z,42.52
2022-12-08T20:47:23.826Z,41.81
2022-12-08T20:49:50.141Z,41.47
2022-12-08T20:52:16.573Z,41.73
2022-12-08T20:54:43.106Z,43.31
2022-12-08T20:57:09.429Z,43.92
2022-12-08T20:59:35.752Z,43.78
2022-12-08T21:02:02.228Z,44.44
2022-12-08T21:04:28.685Z,44.26
2022-12-08T21:06:55.090Z,43.68
2022-12-08T21:09:21.553Z,42.47
2022-12-08T21:11:48.099Z,42.28
2022-12-08T21:14:14.389Z,42.48
2022-12-08T21:16:40.732Z,42.86
2022-12-08T21:19:07.255Z,43.43
2022-12-08T21:21:33.608Z,42.91
2022-12-08T21:24:00.078Z,42.45
2022-12-08T21:26:26.563Z,43.94
2022-12-08T21:28:52.911Z,43.85
2022-12-08T21:31:19.434Z,43.19
2022-12-08T21:33:45.880Z,43.19
2022-12-08T21:36:12.381Z,43.43
2022-12-08T21:38:38.838Z,42.52
2022-12-08T21:41:05.348Z,41.65
2022-12-08T21:43:31.630Z,41.68
2022-12-08T21:45:57.969Z,43.11
2022-12-08T21:48:24.455Z,44.14
2022-12-08T21:50:50.868Z,43.46
2022-12-08T21:53:17.188Z,44.19
2022-12-08T21:55:43.721Z,44.41
2022-12-08T21:58:10.072Z,44.40
2022-12-08T22:00:36.414Z,43.47
2022-12-08T22:03:03.035Z,44.78
2022-12-08T22:05:29.645Z,44.47
2022-12-08T22:07:56.058Z,44.31
2022-12-08T22:10:22.448Z,44.28
2022-12-08T22:12:48.864Z,43.83
2022-12-08T22:15:15.446Z,44.07
2022-12-08T22:17:41.895Z,42.54
2022-12-08T22:20:08.708Z,42.21
2022-12-08T22:22:35.080Z,42.96
2022-12-08T22:25:01.524Z,44.27
2022-12-08T22:27:27.844Z,43.09
2022-12-08T22:29:54.140Z,42.27
2022-12-08T22:32:20.509Z,42.01
2022-12-08T22:34:47.058Z,41.59
2022-12-08T22:37:13.358Z,40.92
2022-12-08T22:39:39.888Z,40.74
2022-12-08T22:42:06.134Z,40.85
2022-12-08T22:44:32.360Z,41.96
2022-12-08T22:46:58.683Z,41.42
2022-12-08T22:49:24.961Z,40.49
2022-12-08T22:51:51.202Z,41.10
2022-12-08T22:54:17.454Z,42.07
2022-12-08T22:56:43.710Z,42.24
2022-12-08T22:59:10.149Z,41.78
2022-12-08T23:01:36.730Z,40.86
2022-12-08T23:04:03.256Z,41.15
2022-12-08T23:06:29.665Z,42.18
2022-12-08T23:08:56.117Z,42.62
2022-12-08T23:11:22.652Z,42.82
2022-12-08T23:13:49.085Z,43.26
2022-12-08T23:16:15.646Z,43.58
2022-12-08T23:18:42.051Z,44.55
2022-12-08T23:21:08.369Z,44.26
2022-12-08T23:23:34.771Z,44.21
2022-12-08T23:26:01.051Z,44.18
2022-12-08T23:28:27.567Z,43.80
2022-12-08T23:30:53.988Z,43.42
2022-12-08T23:33:20.451Z,43.30
2022-12-08T23:35:47.093Z,43.96
2022-12-08T23:38:13.421Z,43.90
2022-12-08T23:40:39.738Z,44.32
2022-12-08T23:43:06.015Z,44.38
2022-12-08T23:45:32.415Z,43.82
2022-12-08T23:47:58.723Z,44.25
2022-12-08T23:50:25.054Z,45.20
2022-12-08T23:52:51.372Z,45.01
2022-12-08T23:55:17.661Z,44.83
2022-12-08T23:57:44.086Z,45.60
